sensor_id;sensor_type;location;lat;lon;timestamp;P1;durP1;ratioP1;P2;durP2;ratioP2
84818;SDS011;75053;51.080;13.712;2024-03-08T00:00:33;33.73;;;21.40;;
84818;SDS011;75053;51.080;13.712;2024-03-08T00:02:59;39.70;;;22.60;;
84818;SDS011;75053;51.080;13.712;2024-03-08T00:05:27;34.43;;;21.67;;
84818;SDS011;75053;51.080;13.712;2024-03-08T00:07:52;38.90;;;23.60;;
84818;SDS011;75053;51.080;13.712;2024-03-08T00:10:18;36.63;;;21.87;;
84818;SDS011;75053;51.080;13.712;2024-03-08T00:12:45;33.60;;;21.60;;
84818;SDS011;75053;51.080;13.712;2024-03-08T00:15:15;35.70;;;21.80;;
84818;SDS011;75053;51.080;13.712;2024-03-08T00:17:41;35.97;;;23.20;;
84818;SDS011;75053;51.080;13.712;2024-03-08T00:20:08;43.30;;;22.30;;
84818;SDS011;75053;51.080;13.712;2024-03-08T00:22:34;40.63;;;22.87;;
84818;SDS011;75053;51.080;13.712;2024-03-08T00:25:01;38.37;;;22.90;;
84818;SDS011;75053;51.080;13.712;2024-03-08T00:27:27;40.67;;;23.03;;
84818;SDS011;75053;51.080;13.712;2024-03-08T00:29:53;39.27;;;22.83;;
84818;SDS011;75053;51.080;13.712;2024-03-08T00:32:19;37.10;;;21.63;;
84818;SDS011;75053;51.080;13.712;2024-03-08T00:34:45;45.20;;;21.67;;
84818;SDS011;75053;51.080;13.712;2024-03-08T00:37:10;39.40;;;22.37;;
84818;SDS011;75053;51.080;13.712;2024-03-08T00:39:36;40.37;;;21.63;;
84818;SDS011;75053;51.080;13.712;2024-03-08T00:42:01;36.77;;;22.17;;
84818;SDS011;75053;51.080;13.712;2024-03-08T00:44:28;36.53;;;21.83;;
84818;SDS011;75053;51.080;13.712;2024-03-08T00:46:53;37.30;;;22.57;;
84818;SDS011;75053;51.080;13.712;2024-03-08T00:49:19;41.03;;;23.40;;
84818;SDS011;75053;51.080;13.712;2024-03-08T00:51:44;37.53;;;21.90;;
84818;SDS011;75053;51.080;13.712;2024-03-08T00:54:10;38.97;;;23.33;;
84818;SDS011;75053;51.080;13.712;2024-03-08T00:56:36;43.73;;;22.43;;
84818;SDS011;75053;51.080;13.712;2024-03-08T00:59:04;41.07;;;22.63;;
84818;SDS011;75053;51.080;13.712;2024-03-08T01:01:30;36.37;;;22.77;;
84818;SDS011;75053;51.080;13.712;2024-03-08T01:03:55;41.93;;;22.67;;
84818;SDS011;75053;51.080;13.712;2024-03-08T01:06:22;34.83;;;22.07;;
84818;SDS011;75053;51.080;13.712;2024-03-08T01:08:47;34.17;;;21.60;;
84818;SDS011;75053;51.080;13.712;2024-03-08T01:11:13;37.23;;;21.13;;
84818;SDS011;75053;51.080;13.712;2024-03-08T01:13:39;34.33;;;21.03;;
84818;SDS011;75053;51.080;13.712;2024-03-08T01:16:04;34.20;;;21.70;;
84818;SDS011;75053;51.080;13.712;2024-03-08T01:18:30;39.93;;;22.40;;
84818;SDS011;75053;51.080;13.712;2024-03-08T01:20:56;46.97;;;22.57;;
84818;SDS011;75053;51.080;13.712;2024-03-08T01:23:22;36.50;;;20.83;;
84818;SDS011;75053;51.080;13.712;2024-03-08T01:25:48;36.87;;;21.73;;
84818;SDS011;75053;51.080;13.712;2024-03-08T01:28:14;32.33;;;20.30;;
84818;SDS011;75053;51.080;13.712;2024-03-08T01:30:39;33.13;;;21.63;;
84818;SDS011;75053;51.080;13.712;2024-03-08T01:33:05;36.67;;;22.13;;
84818;SDS011;75053;51.080;13.712;2024-03-08T01:35:30;38.47;;;23.20;;
84818;SDS011;75053;51.080;13.712;2024-03-08T01:37:56;38.87;;;22.73;;
84818;SDS011;75053;51.080;13.712;2024-03-08T01:40:21;36.03;;;21.83;;
84818;SDS011;75053;51.080;13.712;2024-03-08T01:42:47;37.17;;;22.40;;
84818;SDS011;75053;51.080;13.712;2024-03-08T01:45:13;41.00;;;22.40;;
84818;SDS011;75053;51.080;13.712;2024-03-08T01:47:38;40.13;;;22.40;;
84818;SDS011;75053;51.080;13.712;2024-03-08T01:50:04;35.37;;;22.03;;
84818;SDS011;75053;51.080;13.712;2024-03-08T01:52:34;48.53;;;22.23;;
84818;SDS011;75053;51.080;13.712;2024-03-08T01:55:02;40.67;;;23.57;;
84818;SDS011;75053;51.080;13.712;2024-03-08T01:57:34;39.87;;;22.80;;
84818;SDS011;75053;51.080;13.712;2024-03-08T02:00:00;42.87;;;23.33;;
84818;SDS011;75053;51.080;13.712;2024-03-08T02:02:29;34.43;;;21.90;;
84818;SDS011;75053;51.080;13.712;2024-03-08T02:05:02;43.23;;;22.00;;
84818;SDS011;75053;51.080;13.712;2024-03-08T02:07:28;39.17;;;22.13;;
84818;SDS011;75053;51.080;13.712;2024-03-08T02:09:53;41.87;;;22.90;;
84818;SDS011;75053;51.080;13.712;2024-03-08T02:12:19;43.53;;;24.23;;
84818;SDS011;75053;51.080;13.712;2024-03-08T02:14:48;40.13;;;22.53;;
84818;SDS011;75053;51.080;13.712;2024-03-08T02:17:14;42.00;;;23.60;;
84818;SDS011;75053;51.080;13.712;2024-03-08T02:19:39;40.53;;;21.87;;
84818;SDS011;75053;51.080;13.712;2024-03-08T02:22:05;38.90;;;22.50;;
84818;SDS011;75053;51.080;13.712;2024-03-08T02:24:31;38.53;;;23.30;;
84818;SDS011;75053;51.080;13.712;2024-03-08T02:26:57;38.83;;;22.67;;
84818;SDS011;75053;51.080;13.712;2024-03-08T02:29:23;36.57;;;22.10;;
84818;SDS011;75053;51.080;13.712;2024-03-08T02:31:50;33.37;;;21.93;;
84818;SDS011;75053;51.080;13.712;2024-03-08T02:34:16;39.17;;;22.47;;
84818;SDS011;75053;51.080;13.712;2024-03-08T02:36:42;37.47;;;22.73;;
84818;SDS011;75053;51.080;13.712;2024-03-08T02:39:07;37.43;;;23.07;;
84818;SDS011;75053;51.080;13.712;2024-03-08T02:41:36;36.13;;;23.40;;
84818;SDS011;75053;51.080;13.712;2024-03-08T02:44:01;41.33;;;22.27;;
84818;SDS011;75053;51.080;13.712;2024-03-08T02:46:27;39.60;;;22.77;;
84818;SDS011;75053;51.080;13.712;2024-03-08T02:48:52;41.47;;;22.83;;
84818;SDS011;75053;51.080;13.712;2024-03-08T02:51:18;43.13;;;23.70;;
84818;SDS011;75053;51.080;13.712;2024-03-08T02:53:46;41.20;;;23.43;;
84818;SDS011;75053;51.080;13.712;2024-03-08T02:56:14;40.67;;;21.73;;
84818;SDS011;75053;51.080;13.712;2024-03-08T02:58:41;34.80;;;22.57;;
84818;SDS011;75053;51.080;13.712;2024-03-08T03:01:07;39.47;;;23.93;;
84818;SDS011;75053;51.080;13.712;2024-03-08T03:03:33;40.20;;;23.57;;
84818;SDS011;75053;51.080;13.712;2024-03-08T03:05:58;43.37;;;23.53;;
84818;SDS011;75053;51.080;13.712;2024-03-08T03:08:24;45.57;;;23.57;;
84818;SDS011;75053;51.080;13.712;2024-03-08T03:10:49;44.27;;;24.43;;
84818;SDS011;75053;51.080;13.712;2024-03-08T03:13:15;54.57;;;24.80;;
84818;SDS011;75053;51.080;13.712;2024-03-08T03:15:40;38.40;;;22.93;;
84818;SDS011;75053;51.080;13.712;2024-03-08T03:18:07;43.47;;;23.90;;
84818;SDS011;75053;51.080;13.712;2024-03-08T03:20:33;45.60;;;23.80;;
84818;SDS011;75053;51.080;13.712;2024-03-08T03:23:02;41.47;;;24.77;;
84818;SDS011;75053;51.080;13.712;2024-03-08T03:25:28;43.23;;;23.33;;
84818;SDS011;75053;51.080;13.712;2024-03-08T03:27:58;41.13;;;23.07;;
84818;SDS011;75053;51.080;13.712;2024-03-08T03:30:25;41.40;;;22.57;;
84818;SDS011;75053;51.080;13.712;2024-03-08T03:32:58;41.20;;;24.60;;
84818;SDS011;75053;51.080;13.712;2024-03-08T03:35:25;44.40;;;24.93;;
84818;SDS011;75053;51.080;13.712;2024-03-08T03:37:51;42.63;;;25.83;;
84818;SDS011;75053;51.080;13.712;2024-03-08T03:40:32;44.30;;;24.40;;
84818;SDS011;75053;51.080;13.712;2024-03-08T03:42:58;41.20;;;24.03;;
84818;SDS011;75053;51.080;13.712;2024-03-08T03:45:28;43.77;;;23.60;;
84818;SDS011;75053;51.080;13.712;2024-03-08T03:47:54;42.97;;;23.20;;
84818;SDS011;75053;51.080;13.712;2024-03-08T03:50:19;48.30;;;25.30;;
84818;SDS011;75053;51.080;13.712;2024-03-08T03:52:46;46.47;;;25.43;;
84818;SDS011;75053;51.080;13.712;2024-03-08T03:55:12;39.97;;;23.50;;
84818;SDS011;75053;51.080;13.712;2024-03-08T03:57:38;44.63;;;24.77;;
84818;SDS011;75053;51.080;13.712;2024-03-08T04:00:04;43.73;;;24.63;;
84818;SDS011;75053;51.080;13.712;2024-03-08T04:02:31;40.00;;;24.60;;
84818;SDS011;75053;51.080;13.712;2024-03-08T04:04:56;39.67;;;24.93;;
84818;SDS011;75053;51.080;13.712;2024-03-08T04:07:22;38.73;;;23.93;;
84818;SDS011;75053;51.080;13.712;2024-03-08T04:09:47;46.70;;;25.73;;
84818;SDS011;75053;51.080;13.712;2024-03-08T04:12:13;45.57;;;24.27;;
84818;SDS011;75053;51.080;13.712;2024-03-08T04:14:43;41.63;;;24.27;;
84818;SDS011;75053;51.080;13.712;2024-03-08T04:17:09;45.27;;;25.27;;
84818;SDS011;75053;51.080;13.712;2024-03-08T04:19:38;42.90;;;24.27;;
84818;SDS011;75053;51.080;13.712;2024-03-08T04:22:05;44.00;;;24.90;;
84818;SDS011;75053;51.080;13.712;2024-03-08T04:24:30;41.63;;;24.80;;
84818;SDS011;75053;51.080;13.712;2024-03-08T04:26:56;45.30;;;25.37;;
84818;SDS011;75053;51.080;13.712;2024-03-08T04:29:22;42.13;;;23.83;;
84818;SDS011;75053;51.080;13.712;2024-03-08T04:31:48;44.03;;;25.63;;
84818;SDS011;75053;51.080;13.712;2024-03-08T04:34:13;42.60;;;25.07;;
84818;SDS011;75053;51.080;13.712;2024-03-08T04:39:24;39.70;;;24.40;;
84818;SDS011;75053;51.080;13.712;2024-03-08T04:41:51;51.40;;;25.37;;
84818;SDS011;75053;51.080;13.712;2024-03-08T04:44:17;47.47;;;24.47;;
84818;SDS011;75053;51.080;13.712;2024-03-08T04:46:42;40.40;;;24.13;;
84818;SDS011;75053;51.080;13.712;2024-03-08T04:49:09;43.67;;;26.20;;
84818;SDS011;75053;51.080;13.712;2024-03-08T04:51:36;44.50;;;26.17;;
84818;SDS011;75053;51.080;13.712;2024-03-08T04:54:02;45.53;;;24.90;;
84818;SDS011;75053;51.080;13.712;2024-03-08T04:56:29;44.13;;;25.63;;
84818;SDS011;75053;51.080;13.712;2024-03-08T04:58:55;50.23;;;25.03;;
84818;SDS011;75053;51.080;13.712;2024-03-08T05:01:20;51.73;;;27.37;;
84818;SDS011;75053;51.080;13.712;2024-03-08T05:03:46;46.03;;;25.67;;
84818;SDS011;75053;51.080;13.712;2024-03-08T05:06:14;41.93;;;24.43;;
84818;SDS011;75053;51.080;13.712;2024-03-08T05:08:40;52.97;;;26.53;;
84818;SDS011;75053;51.080;13.712;2024-03-08T05:11:06;39.23;;;25.83;;
84818;SDS011;75053;51.080;13.712;2024-03-08T05:13:32;48.43;;;25.13;;
84818;SDS011;75053;51.080;13.712;2024-03-08T05:15:59;50.87;;;24.97;;
84818;SDS011;75053;51.080;13.712;2024-03-08T05:18:25;45.37;;;25.93;;
84818;SDS011;75053;51.080;13.712;2024-03-08T05:20:53;41.90;;;24.93;;
84818;SDS011;75053;51.080;13.712;2024-03-08T05:23:18;47.60;;;25.43;;
84818;SDS011;75053;51.080;13.712;2024-03-08T05:25:44;43.20;;;25.83;;
84818;SDS011;75053;51.080;13.712;2024-03-08T05:28:12;48.67;;;26.20;;
84818;SDS011;75053;51.080;13.712;2024-03-08T05:30:38;48.83;;;26.70;;
84818;SDS011;75053;51.080;13.712;2024-03-08T05:33:04;47.37;;;27.70;;
84818;SDS011;75053;51.080;13.712;2024-03-08T05:35:29;46.20;;;26.90;;
84818;SDS011;75053;51.080;13.712;2024-03-08T05:37:55;49.10;;;26.97;;
84818;SDS011;75053;51.080;13.712;2024-03-08T05:40:20;50.83;;;26.10;;
84818;SDS011;75053;51.080;13.712;2024-03-08T05:42:46;51.30;;;26.30;;
84818;SDS011;75053;51.080;13.712;2024-03-08T05:45:11;44.37;;;25.20;;
84818;SDS011;75053;51.080;13.712;2024-03-08T05:47:38;49.07;;;26.77;;
84818;SDS011;75053;51.080;13.712;2024-03-08T05:50:04;50.70;;;26.70;;
84818;SDS011;75053;51.080;13.712;2024-03-08T05:52:35;48.07;;;26.47;;
84818;SDS011;75053;51.080;13.712;2024-03-08T05:55:00;45.97;;;26.53;;
84818;SDS011;75053;51.080;13.712;2024-03-08T05:57:26;44.23;;;26.53;;
84818;SDS011;75053;51.080;13.712;2024-03-08T05:59:52;47.70;;;27.63;;
84818;SDS011;75053;51.080;13.712;2024-03-08T06:02:17;50.43;;;28.00;;
84818;SDS011;75053;51.080;13.712;2024-03-08T06:04:45;52.80;;;26.80;;
84818;SDS011;75053;51.080;13.712;2024-03-08T06:07:12;51.90;;;27.60;;
84818;SDS011;75053;51.080;13.712;2024-03-08T06:09:37;48.87;;;26.20;;
84818;SDS011;75053;51.080;13.712;2024-03-08T06:12:03;58.27;;;27.33;;
84818;SDS011;75053;51.080;13.712;2024-03-08T06:14:29;47.17;;;26.13;;
84818;SDS011;75053;51.080;13.712;2024-03-08T06:16:55;48.27;;;26.87;;
84818;SDS011;75053;51.080;13.712;2024-03-08T06:19:20;44.80;;;27.53;;
84818;SDS011;75053;51.080;13.712;2024-03-08T06:21:46;47.83;;;27.13;;
84818;SDS011;75053;51.080;13.712;2024-03-08T06:24:11;50.20;;;28.33;;
84818;SDS011;75053;51.080;13.712;2024-03-08T06:26:37;63.60;;;29.77;;
84818;SDS011;75053;51.080;13.712;2024-03-08T06:29:04;47.87;;;28.37;;
84818;SDS011;75053;51.080;13.712;2024-03-08T06:31:31;51.03;;;27.63;;
84818;SDS011;75053;51.080;13.712;2024-03-08T06:33:57;50.20;;;27.90;;
84818;SDS011;75053;51.080;13.712;2024-03-08T06:36:23;50.60;;;28.77;;
84818;SDS011;75053;51.080;13.712;2024-03-08T06:38:49;50.67;;;30.87;;
84818;SDS011;75053;51.080;13.712;2024-03-08T06:41:15;58.43;;;29.43;;
84818;SDS011;75053;51.080;13.712;2024-03-08T06:43:43;44.87;;;26.43;;
84818;SDS011;75053;51.080;13.712;2024-03-08T06:46:14;40.97;;;26.40;;
84818;SDS011;75053;51.080;13.712;2024-03-08T06:48:40;42.83;;;26.17;;
84818;SDS011;75053;51.080;13.712;2024-03-08T06:51:05;46.33;;;26.67;;
84818;SDS011;75053;51.080;13.712;2024-03-08T06:53:31;48.67;;;27.43;;
84818;SDS011;75053;51.080;13.712;2024-03-08T06:55:57;46.37;;;26.67;;
84818;SDS011;75053;51.080;13.712;2024-03-08T06:58:23;48.67;;;27.27;;
84818;SDS011;75053;51.080;13.712;2024-03-08T07:00:49;58.40;;;31.50;;
84818;SDS011;75053;51.080;13.712;2024-03-08T07:03:17;46.53;;;27.63;;
84818;SDS011;75053;51.080;13.712;2024-03-08T07:05:43;49.20;;;26.93;;
84818;SDS011;75053;51.080;13.712;2024-03-08T07:08:08;49.20;;;27.23;;
84818;SDS011;75053;51.080;13.712;2024-03-08T07:10:34;47.10;;;25.50;;
84818;SDS011;75053;51.080;13.712;2024-03-08T07:13:00;50.10;;;27.00;;
84818;SDS011;75053;51.080;13.712;2024-03-08T07:15:27;40.80;;;25.90;;
84818;SDS011;75053;51.080;13.712;2024-03-08T07:17:53;52.50;;;29.07;;
84818;SDS011;75053;51.080;13.712;2024-03-08T07:20:19;46.93;;;26.47;;
84818;SDS011;75053;51.080;13.712;2024-03-08T07:22:48;46.97;;;26.90;;
84818;SDS011;75053;51.080;13.712;2024-03-08T07:25:15;46.77;;;27.50;;
84818;SDS011;75053;51.080;13.712;2024-03-08T07:27:48;46.87;;;27.57;;
84818;SDS011;75053;51.080;13.712;2024-03-08T07:30:14;50.00;;;27.97;;
84818;SDS011;75053;51.080;13.712;2024-03-08T07:32:59;52.60;;;28.97;;
84818;SDS011;75053;51.080;13.712;2024-03-08T07:35:24;48.67;;;28.17;;
84818;SDS011;75053;51.080;13.712;2024-03-08T07:37:51;50.87;;;28.37;;
84818;SDS011;75053;51.080;13.712;2024-03-08T07:40:20;49.67;;;29.17;;
84818;SDS011;75053;51.080;13.712;2024-03-08T07:42:48;46.30;;;28.37;;
84818;SDS011;75053;51.080;13.712;2024-03-08T07:45:15;51.70;;;28.77;;
84818;SDS011;75053;51.080;13.712;2024-03-08T07:47:41;45.93;;;28.40;;
84818;SDS011;75053;51.080;13.712;2024-03-08T07:50:07;52.53;;;28.57;;
84818;SDS011;75053;51.080;13.712;2024-03-08T07:52:33;48.30;;;27.87;;
84818;SDS011;75053;51.080;13.712;2024-03-08T07:54:59;49.73;;;28.43;;
84818;SDS011;75053;51.080;13.712;2024-03-08T07:57:25;49.57;;;28.67;;
84818;SDS011;75053;51.080;13.712;2024-03-08T07:59:51;46.77;;;27.70;;
84818;SDS011;75053;51.080;13.712;2024-03-08T08:02:19;53.07;;;30.33;;
84818;SDS011;75053;51.080;13.712;2024-03-08T08:04:45;51.30;;;28.33;;
84818;SDS011;75053;51.080;13.712;2024-03-08T08:07:11;51.60;;;27.80;;
84818;SDS011;75053;51.080;13.712;2024-03-08T08:09:37;44.77;;;27.87;;
84818;SDS011;75053;51.080;13.712;2024-03-08T08:12:03;54.10;;;27.87;;
84818;SDS011;75053;51.080;13.712;2024-03-08T08:14:29;44.23;;;25.10;;
84818;SDS011;75053;51.080;13.712;2024-03-08T08:16:56;44.70;;;28.37;;
84818;SDS011;75053;51.080;13.712;2024-03-08T08:19:23;53.23;;;27.83;;
84818;SDS011;75053;51.080;13.712;2024-03-08T08:21:48;44.00;;;26.50;;
84818;SDS011;75053;51.080;13.712;2024-03-08T08:24:14;44.37;;;26.50;;
84818;SDS011;75053;51.080;13.712;2024-03-08T08:26:40;46.40;;;27.33;;
84818;SDS011;75053;51.080;13.712;2024-03-08T08:29:06;45.83;;;26.83;;
84818;SDS011;75053;51.080;13.712;2024-03-08T08:31:32;46.27;;;26.20;;
84818;SDS011;75053;51.080;13.712;2024-03-08T08:33:58;47.33;;;27.20;;
84818;SDS011;75053;51.080;13.712;2024-03-08T08:36:27;40.90;;;25.17;;
84818;SDS011;75053;51.080;13.712;2024-03-08T08:38:54;43.43;;;26.10;;
84818;SDS011;75053;51.080;13.712;2024-03-08T08:41:21;41.47;;;25.70;;
84818;SDS011;75053;51.080;13.712;2024-03-08T08:43:47;38.17;;;24.60;;
84818;SDS011;75053;51.080;13.712;2024-03-08T08:46:16;39.33;;;23.30;;
84818;SDS011;75053;51.080;13.712;2024-03-08T08:48:42;42.40;;;24.43;;
84818;SDS011;75053;51.080;13.712;2024-03-08T08:51:11;38.37;;;21.60;;
84818;SDS011;75053;51.080;13.712;2024-03-08T08:53:39;35.93;;;22.50;;
84818;SDS011;75053;51.080;13.712;2024-03-08T08:56:08;42.60;;;23.13;;
84818;SDS011;75053;51.080;13.712;2024-03-08T08:58:35;37.77;;;23.23;;
84818;SDS011;75053;51.080;13.712;2024-03-08T09:01:04;40.10;;;23.47;;
84818;SDS011;75053;51.080;13.712;2024-03-08T09:03:34;36.63;;;23.00;;
84818;SDS011;75053;51.080;13.712;2024-03-08T09:06:00;36.80;;;23.13;;
84818;SDS011;75053;51.080;13.712;2024-03-08T09:08:27;37.40;;;23.10;;
84818;SDS011;75053;51.080;13.712;2024-03-08T09:10:56;35.73;;;22.00;;
84818;SDS011;75053;51.080;13.712;2024-03-08T09:13:24;39.70;;;21.87;;
84818;SDS011;75053;51.080;13.712;2024-03-08T09:15:50;32.53;;;21.47;;
84818;SDS011;75053;51.080;13.712;2024-03-08T09:18:17;34.37;;;22.43;;
84818;SDS011;75053;51.080;13.712;2024-03-08T09:20:44;37.90;;;22.40;;
84818;SDS011;75053;51.080;13.712;2024-03-08T09:23:10;30.97;;;19.13;;
84818;SDS011;75053;51.080;13.712;2024-03-08T09:25:40;31.33;;;19.67;;
84818;SDS011;75053;51.080;13.712;2024-03-08T09:28:06;34.80;;;19.03;;
84818;SDS011;75053;51.080;13.712;2024-03-08T09:30:31;32.37;;;19.00;;
84818;SDS011;75053;51.080;13.712;2024-03-08T09:32:57;30.57;;;18.57;;
84818;SDS011;75053;51.080;13.712;2024-03-08T09:35:24;35.53;;;18.83;;
84818;SDS011;75053;51.080;13.712;2024-03-08T09:37:50;30.27;;;18.80;;
84818;SDS011;75053;51.080;13.712;2024-03-08T09:40:16;32.87;;;18.90;;
84818;SDS011;75053;51.080;13.712;2024-03-08T09:42:44;31.27;;;18.23;;
84818;SDS011;75053;51.080;13.712;2024-03-08T09:45:11;25.43;;;18.30;;
84818;SDS011;75053;51.080;13.712;2024-03-08T09:47:40;27.77;;;18.07;;
84818;SDS011;75053;51.080;13.712;2024-03-08T09:50:07;30.60;;;18.60;;
84818;SDS011;75053;51.080;13.712;2024-03-08T09:52:41;27.00;;;17.43;;
84818;SDS011;75053;51.080;13.712;2024-03-08T09:55:09;27.13;;;17.20;;
84818;SDS011;75053;51.080;13.712;2024-03-08T09:57:41;28.37;;;17.33;;
84818;SDS011;75053;51.080;13.712;2024-03-08T10:00:28;26.03;;;17.63;;
84818;SDS011;75053;51.080;13.712;2024-03-08T10:02:53;25.23;;;16.43;;
84818;SDS011;75053;51.080;13.712;2024-03-08T10:05:19;25.77;;;15.57;;
84818;SDS011;75053;51.080;13.712;2024-03-08T10:07:52;23.50;;;15.27;;
84818;SDS011;75053;51.080;13.712;2024-03-08T10:10:18;21.83;;;14.90;;
84818;SDS011;75053;51.080;13.712;2024-03-08T10:12:43;23.58;;;14.90;;
84818;SDS011;75053;51.080;13.712;2024-03-08T10:15:10;21.15;;;14.43;;
84818;SDS011;75053;51.080;13.712;2024-03-08T10:17:37;18.77;;;13.93;;
84818;SDS011;75053;51.080;13.712;2024-03-08T10:20:13;23.90;;;16.00;;
84818;SDS011;75053;51.080;13.712;2024-03-08T10:22:42;25.70;;;16.08;;
84818;SDS011;75053;51.080;13.712;2024-03-08T10:25:12;23.67;;;15.25;;
84818;SDS011;75053;51.080;13.712;2024-03-08T10:27:41;23.25;;;15.65;;
84818;SDS011;75053;51.080;13.712;2024-03-08T10:30:14;26.83;;;15.93;;
84818;SDS011;75053;51.080;13.712;2024-03-08T10:32:41;24.25;;;15.57;;
84818;SDS011;75053;51.080;13.712;2024-03-08T10:35:07;28.98;;;17.63;;
84818;SDS011;75053;51.080;13.712;2024-03-08T10:37:44;26.55;;;17.63;;
84818;SDS011;75053;51.080;13.712;2024-03-08T10:40:13;26.48;;;16.55;;
84818;SDS011;75053;51.080;13.712;2024-03-08T10:45:40;24.30;;;16.55;;
84818;SDS011;75053;51.080;13.712;2024-03-08T10:48:10;25.63;;;15.85;;
84818;SDS011;75053;51.080;13.712;2024-03-08T10:51:01;27.52;;;16.50;;
84818;SDS011;75053;51.080;13.712;2024-03-08T10:53:29;24.55;;;16.77;;
84818;SDS011;75053;51.080;13.712;2024-03-08T10:55:58;27.50;;;18.15;;
84818;SDS011;75053;51.080;13.712;2024-03-08T10:58:24;27.60;;;16.83;;
84818;SDS011;75053;51.080;13.712;2024-03-08T11:00:56;26.15;;;18.40;;
84818;SDS011;75053;51.080;13.712;2024-03-08T11:06:07;29.48;;;16.50;;
84818;SDS011;75053;51.080;13.712;2024-03-08T11:08:35;28.30;;;17.83;;
84818;SDS011;75053;51.080;13.712;2024-03-08T11:11:01;27.30;;;17.88;;
84818;SDS011;75053;51.080;13.712;2024-03-08T11:13:36;25.02;;;17.55;;
84818;SDS011;75053;51.080;13.712;2024-03-08T11:16:08;23.38;;;16.08;;
84818;SDS011;75053;51.080;13.712;2024-03-08T11:18:37;22.33;;;16.45;;
84818;SDS011;75053;51.080;13.712;2024-03-08T11:21:08;20.90;;;15.55;;
84818;SDS011;75053;51.080;13.712;2024-03-08T11:23:37;23.95;;;16.73;;
84818;SDS011;75053;51.080;13.712;2024-03-08T11:26:16;26.13;;;16.70;;
84818;SDS011;75053;51.080;13.712;2024-03-08T11:28:43;24.00;;;14.63;;
84818;SDS011;75053;51.080;13.712;2024-03-08T11:33:37;25.25;;;16.55;;
84818;SDS011;75053;51.080;13.712;2024-03-08T11:36:12;25.27;;;16.10;;
84818;SDS011;75053;51.080;13.712;2024-03-08T11:38:42;21.83;;;14.85;;
84818;SDS011;75053;51.080;13.712;2024-03-08T11:41:14;24.42;;;15.88;;
84818;SDS011;75053;51.080;13.712;2024-03-08T11:43:47;22.15;;;15.88;;
84818;SDS011;75053;51.080;13.712;2024-03-08T11:46:15;23.77;;;15.00;;
84818;SDS011;75053;51.080;13.712;2024-03-08T11:48:42;20.80;;;14.75;;
84818;SDS011;75053;51.080;13.712;2024-03-08T11:51:09;24.10;;;15.13;;
84818;SDS011;75053;51.080;13.712;2024-03-08T11:53:40;19.70;;;14.43;;
84818;SDS011;75053;51.080;13.712;2024-03-08T11:56:12;20.23;;;14.10;;
84818;SDS011;75053;51.080;13.712;2024-03-08T11:58:39;25.30;;;16.85;;
84818;SDS011;75053;51.080;13.712;2024-03-08T12:01:06;19.17;;;14.23;;
84818;SDS011;75053;51.080;13.712;2024-03-08T12:03:40;19.20;;;15.05;;
84818;SDS011;75053;51.080;13.712;2024-03-08T12:06:09;17.80;;;13.57;;
84818;SDS011;75053;51.080;13.712;2024-03-08T12:08:35;16.30;;;12.55;;
84818;SDS011;75053;51.080;13.712;2024-03-08T12:11:03;18.33;;;13.20;;
84818;SDS011;75053;51.080;13.712;2024-03-08T12:13:32;16.92;;;13.45;;
84818;SDS011;75053;51.080;13.712;2024-03-08T12:15:59;16.65;;;12.95;;
84818;SDS011;75053;51.080;13.712;2024-03-08T12:18:25;17.20;;;12.35;;
84818;SDS011;75053;51.080;13.712;2024-03-08T12:23:35;18.05;;;12.27;;
84818;SDS011;75053;51.080;13.712;2024-03-08T12:26:18;14.52;;;11.40;;
84818;SDS011;75053;51.080;13.712;2024-03-08T12:28:51;15.85;;;12.18;;
84818;SDS011;75053;51.080;13.712;2024-03-08T12:31:17;15.63;;;11.27;;
84818;SDS011;75053;51.080;13.712;2024-03-08T12:36:21;17.80;;;12.15;;
84818;SDS011;75053;51.080;13.712;2024-03-08T12:38:47;14.48;;;11.18;;
84818;SDS011;75053;51.080;13.712;2024-03-08T12:41:18;15.35;;;11.70;;
84818;SDS011;75053;51.080;13.712;2024-03-08T12:43:44;14.30;;;11.13;;
84818;SDS011;75053;51.080;13.712;2024-03-08T12:46:16;15.40;;;11.57;;
84818;SDS011;75053;51.080;13.712;2024-03-08T12:48:45;14.02;;;10.95;;
84818;SDS011;75053;51.080;13.712;2024-03-08T12:51:14;14.15;;;11.50;;
84818;SDS011;75053;51.080;13.712;2024-03-08T12:53:41;15.60;;;11.35;;
84818;SDS011;75053;51.080;13.712;2024-03-08T12:56:09;18.02;;;10.95;;
84818;SDS011;75053;51.080;13.712;2024-03-08T12:58:36;14.63;;;11.40;;
84818;SDS011;75053;51.080;13.712;2024-03-08T13:01:04;18.35;;;11.82;;
84818;SDS011;75053;51.080;13.712;2024-03-08T13:03:32;17.08;;;11.00;;
84818;SDS011;75053;51.080;13.712;2024-03-08T13:06:00;15.48;;;10.95;;
84818;SDS011;75053;51.080;13.712;2024-03-08T13:08:26;14.55;;;10.43;;
84818;SDS011;75053;51.080;13.712;2024-03-08T13:10:54;13.27;;;10.77;;
84818;SDS011;75053;51.080;13.712;2024-03-08T13:13:20;14.57;;;11.13;;
84818;SDS011;75053;51.080;13.712;2024-03-08T13:15:45;12.65;;;10.25;;
84818;SDS011;75053;51.080;13.712;2024-03-08T13:18:11;16.25;;;11.40;;
84818;SDS011;75053;51.080;13.712;2024-03-08T13:20:36;14.60;;;11.40;;
84818;SDS011;75053;51.080;13.712;2024-03-08T13:23:03;14.77;;;12.40;;
84818;SDS011;75053;51.080;13.712;2024-03-08T13:25:30;17.50;;;12.25;;
84818;SDS011;75053;51.080;13.712;2024-03-08T13:27:56;16.33;;;11.52;;
84818;SDS011;75053;51.080;13.712;2024-03-08T13:30:24;16.63;;;11.20;;
84818;SDS011;75053;51.080;13.712;2024-03-08T13:32:54;15.32;;;12.43;;
84818;SDS011;75053;51.080;13.712;2024-03-08T13:35:21;14.95;;;11.40;;
84818;SDS011;75053;51.080;13.712;2024-03-08T13:37:51;14.40;;;10.65;;
84818;SDS011;75053;51.080;13.712;2024-03-08T13:40:17;13.18;;;11.65;;
84818;SDS011;75053;51.080;13.712;2024-03-08T13:42:46;16.58;;;12.75;;
84818;SDS011;75053;51.080;13.712;2024-03-08T13:45:14;18.00;;;12.35;;
84818;SDS011;75053;51.080;13.712;2024-03-08T13:47:47;15.30;;;11.07;;
84818;SDS011;75053;51.080;13.712;2024-03-08T13:50:14;14.27;;;11.27;;
84818;SDS011;75053;51.080;13.712;2024-03-08T13:52:46;14.80;;;11.38;;
84818;SDS011;75053;51.080;13.712;2024-03-08T13:55:16;19.58;;;11.32;;
84818;SDS011;75053;51.080;13.712;2024-03-08T13:57:42;14.32;;;11.27;;
84818;SDS011;75053;51.080;13.712;2024-03-08T14:00:08;12.50;;;10.93;;
84818;SDS011;75053;51.080;13.712;2024-03-08T14:02:33;19.83;;;12.38;;
84818;SDS011;75053;51.080;13.712;2024-03-08T14:04:59;13.02;;;11.07;;
84818;SDS011;75053;51.080;13.712;2024-03-08T14:07:26;16.08;;;11.90;;
84818;SDS011;75053;51.080;13.712;2024-03-08T14:09:54;11.32;;;10.13;;
84818;SDS011;75053;51.080;13.712;2024-03-08T14:12:20;12.85;;;10.20;;
84818;SDS011;75053;51.080;13.712;2024-03-08T14:14:45;11.98;;;9.43;;
84818;SDS011;75053;51.080;13.712;2024-03-08T14:17:11;12.30;;;10.02;;
84818;SDS011;75053;51.080;13.712;2024-03-08T14:19:42;10.98;;;9.50;;
84818;SDS011;75053;51.080;13.712;2024-03-08T14:22:07;13.15;;;10.45;;
84818;SDS011;75053;51.080;13.712;2024-03-08T14:24:35;12.20;;;9.98;;